Meiryu Maru No.1 — JD3745 — position and weather

sailwx.info

Track history (hours):
 
Tides and Currents Weather Stations Pressure Air Temp Water Temp Dewpoint Dewpoint Depression Visibility Wind Speed Wind Dir Waves Ship Positions

Meiryu Maru No.1

Last reported at 2017-Nov-15 08:11 UTC. Time now 2017-Nov-17 23:11 UTC.
Position N 34°37' E 135°01'.

Length 75 m; draft 4 m.

Type: Cargo ship. MMSI: 431005772.

Date/timePositionNaut miles runAvg speedWind from/ knotsBaromVisibWave heightAir tempDewpointWater temp
2017-Nov-15 08:11N 34°37' E 135°01'313.9
2017-Nov-15 08:00N 34°36' E 135°04'612.9
2017-Nov-15 07:30N 34°37' E 135°12'510.9
2017-Nov-15 07:00N 34°40' E 135°18'1 3.0
2017-Nov-15 06:30N 34°41' E 135°17'0 0.0
2017-Nov-15 06:00N 34°41' E 135°17'0 0.0
2017-Nov-15 05:30N 34°41' E 135°17'0 0.0
2017-Nov-15 05:00N 34°41' E 135°17'0 0.0
2017-Nov-15 04:30N 34°41' E 135°17'0 0.0
2017-Nov-15 04:00N 34°41' E 135°17'0 0.0
2017-Nov-15 03:30N 34°41' E 135°17'0 0.0
2017-Nov-15 03:00N 34°41' E 135°17'0 0.0
2017-Nov-15 02:30N 34°41' E 135°17'0 0.0
2017-Nov-15 02:00N 34°41' E 135°17'0 0.0
2017-Nov-15 01:30N 34°41' E 135°17'0 0.0
2017-Nov-15 01:00N 34°41' E 135°17'0 0.0
2017-Nov-15 00:30N 34°41' E 135°17'0 0.0
2017-Nov-15 00:00N 34°41' E 135°17'0 0.0
2017-Nov-14 23:30N 34°41' E 135°17'0 0.0
2017-Nov-14 23:00N 34°41' E 135°17'0 0.0
2017-Nov-14 22:30N 34°41' E 135°17'0 0.0
2017-Nov-14 22:00N 34°41' E 135°17'0 0.0
2017-Nov-14 21:30N 34°41' E 135°17'0 0.0
2017-Nov-14 21:00N 34°41' E 135°17'0 0.0
2017-Nov-14 20:30N 34°41' E 135°17'0 0.0
2017-Nov-14 20:00N 34°41' E 135°17'0 0.0
2017-Nov-14 19:30N 34°41' E 135°17'0 0.0
2017-Nov-14 19:00N 34°41' E 135°17'0 0.0
2017-Nov-14 18:30N 34°41' E 135°17'0 0.0
2017-Nov-14 18:00N 34°41' E 135°17'0 0.0
2017-Nov-14 17:30N 34°41' E 135°17'0 0.0
2017-Nov-14 17:00N 34°41' E 135°17'0 0.0
2017-Nov-14 16:30N 34°41' E 135°17'0 0.0
2017-Nov-14 16:00N 34°41' E 135°17'0 0.0
2017-Nov-14 15:30N 34°41' E 135°17'0 0.0
2017-Nov-14 15:00N 34°41' E 135°17'0 0.0
2017-Nov-14 14:30N 34°41' E 135°17'0 0.0
2017-Nov-14 13:59N 34°41' E 135°17'0 0.0
2017-Nov-14 13:30N 34°41' E 135°17'0 0.0
2017-Nov-14 13:00N 34°41' E 135°17'0 0.0
2017-Nov-14 12:30N 34°41' E 135°17'0 0.0
2017-Nov-14 12:00N 34°41' E 135°17'0 0.0
2017-Nov-14 11:30N 34°41' E 135°17'0 0.0
2017-Nov-14 11:00N 34°41' E 135°17'0 0.0
2017-Nov-14 10:30N 34°41' E 135°17'0 0.0
2017-Nov-14 10:00N 34°41' E 135°17'0 0.0
2017-Nov-14 09:30N 34°41' E 135°17'0 0.0
2017-Nov-14 09:00N 34°41' E 135°17'0 0.0
2017-Nov-14 08:30N 34°41' E 135°17'1 2.7
2017-Nov-14 08:00N 34°40' E 135°15'510.2
2017-Nov-14 07:30N 34°35' E 135°13'713.0
2017-Nov-14 07:00N 34°35' E 135°05'9 0.3
2017-Nov-12 20:45N 34°37' E 134°54'613.3
2017-Nov-12 20:20N 34°38' E 135°01'413.5
2017-Nov-12 20:00N 34°35' E 135°05'2012.7
2017-Nov-12 18:24N 34°15' E 134°59'227 9.6
2017-Nov-11 18:46N 34°57' E 139°31'2 8.7
2017-Nov-11 18:30N 34°58' E 139°33'  
2017-Nov-07 09:17N 35°10' E 139°46'312.0
2017-Nov-07 09:00N 35°14' E 139°46'611.7
2017-Nov-07 08:31N 35°19' E 139°43'611.3
2017-Nov-07 08:01N 35°25' E 139°43'5 7.9
2017-Nov-07 07:24N 35°24' E 139°49'4 0.4
2017-Nov-06 21:42N 35°22' E 139°54'2 9.7
2017-Nov-06 21:30N 35°23' E 139°51'1 1.3
2017-Nov-06 20:47N 35°23' E 139°51'0 0.2
2017-Nov-06 20:29N 35°23' E 139°51'2 0.1
2017-Nov-05 21:37N 35°22' E 139°53'0 0.0
2017-Nov-05 21:13N 35°22' E 139°53'0 0.0
2017-Nov-05 20:55N 35°22' E 139°53'0 0.0
2017-Nov-05 08:58N 35°22' E 139°53'3 6.5
2017-Nov-05 08:30N 35°23' E 139°49'  
Track history (hours):
 
Tides and Currents Weather Stations Pressure Air Temp Water Temp Dewpoint Dewpoint Depression Visibility Wind Speed Wind Dir Waves Ship Positions

Meiryu Maru No.1

Last reported at 2017-Nov-15 08:11 UTC. Time now 2017-Nov-17 23:11 UTC.
Position N 34°37' E 135°01'.

Length 75 m; draft 4 m.

Type: Cargo ship. MMSI: 431005772.

Date/timePositionNaut miles runAvg speedWind from/ knotsBaromVisibWave heightAir tempDewpointWater temp
2017-Nov-15 08:11N 34°37' E 135°01'313.9
2017-Nov-15 08:00N 34°36' E 135°04'612.9
2017-Nov-15 07:30N 34°37' E 135°12'510.9
2017-Nov-15 07:00N 34°40' E 135°18'1 3.0
2017-Nov-15 06:30N 34°41' E 135°17'0 0.0
2017-Nov-15 06:00N 34°41' E 135°17'0 0.0
2017-Nov-15 05:30N 34°41' E 135°17'0 0.0
2017-Nov-15 05:00N 34°41' E 135°17'0 0.0
2017-Nov-15 04:30N 34°41' E 135°17'0 0.0
2017-Nov-15 04:00N 34°41' E 135°17'0 0.0
2017-Nov-15 03:30N 34°41' E 135°17'0 0.0
2017-Nov-15 03:00N 34°41' E 135°17'0 0.0
2017-Nov-15 02:30N 34°41' E 135°17'0 0.0
2017-Nov-15 02:00N 34°41' E 135°17'0 0.0
2017-Nov-15 01:30N 34°41' E 135°17'0 0.0
2017-Nov-15 01:00N 34°41' E 135°17'0 0.0
2017-Nov-15 00:30N 34°41' E 135°17'0 0.0
2017-Nov-15 00:00N 34°41' E 135°17'0 0.0
2017-Nov-14 23:30N 34°41' E 135°17'0 0.0
2017-Nov-14 23:00N 34°41' E 135°17'0 0.0
2017-Nov-14 22:30N 34°41' E 135°17'0 0.0
2017-Nov-14 22:00N 34°41' E 135°17'0 0.0
2017-Nov-14 21:30N 34°41' E 135°17'0 0.0
2017-Nov-14 21:00N 34°41' E 135°17'0 0.0
2017-Nov-14 20:30N 34°41' E 135°17'0 0.0
2017-Nov-14 20:00N 34°41' E 135°17'0 0.0
2017-Nov-14 19:30N 34°41' E 135°17'0 0.0
2017-Nov-14 19:00N 34°41' E 135°17'0 0.0
2017-Nov-14 18:30N 34°41' E 135°17'0 0.0
2017-Nov-14 18:00N 34°41' E 135°17'0 0.0
2017-Nov-14 17:30N 34°41' E 135°17'0 0.0
2017-Nov-14 17:00N 34°41' E 135°17'0 0.0
2017-Nov-14 16:30N 34°41' E 135°17'0 0.0
2017-Nov-14 16:00N 34°41' E 135°17'0 0.0
2017-Nov-14 15:30N 34°41' E 135°17'0 0.0
2017-Nov-14 15:00N 34°41' E 135°17'0 0.0
2017-Nov-14 14:30N 34°41' E 135°17'0 0.0
2017-Nov-14 13:59N 34°41' E 135°17'0 0.0
2017-Nov-14 13:30N 34°41' E 135°17'0 0.0
2017-Nov-14 13:00N 34°41' E 135°17'0 0.0
2017-Nov-14 12:30N 34°41' E 135°17'0 0.0
2017-Nov-14 12:00N 34°41' E 135°17'0 0.0
2017-Nov-14 11:30N 34°41' E 135°17'0 0.0
2017-Nov-14 11:00N 34°41' E 135°17'0 0.0
2017-Nov-14 10:30N 34°41' E 135°17'0 0.0
2017-Nov-14 10:00N 34°41' E 135°17'0 0.0
2017-Nov-14 09:30N 34°41' E 135°17'0 0.0
2017-Nov-14 09:00N 34°41' E 135°17'0 0.0
2017-Nov-14 08:30N 34°41' E 135°17'1 2.7
2017-Nov-14 08:00N 34°40' E 135°15'510.2
2017-Nov-14 07:30N 34°35' E 135°13'713.0
2017-Nov-14 07:00N 34°35' E 135°05'9 0.3
2017-Nov-12 20:45N 34°37' E 134°54'613.3
2017-Nov-12 20:20N 34°38' E 135°01'413.5
2017-Nov-12 20:00N 34°35' E 135°05'2012.7
2017-Nov-12 18:24N 34°15' E 134°59'227 9.6
2017-Nov-11 18:46N 34°57' E 139°31'2 8.7
2017-Nov-11 18:30N 34°58' E 139°33'  
2017-Nov-07 09:17N 35°10' E 139°46'312.0
2017-Nov-07 09:00N 35°14' E 139°46'611.7
2017-Nov-07 08:31N 35°19' E 139°43'611.3
2017-Nov-07 08:01N 35°25' E 139°43'5 7.9
2017-Nov-07 07:24N 35°24' E 139°49'4 0.4
2017-Nov-06 21:42N 35°22' E 139°54'2 9.7
2017-Nov-06 21:30N 35°23' E 139°51'1 1.3
2017-Nov-06 20:47N 35°23' E 139°51'0 0.2
2017-Nov-06 20:29N 35°23' E 139°51'2 0.1
2017-Nov-05 21:37N 35°22' E 139°53'0 0.0
2017-Nov-05 21:13N 35°22' E 139°53'0 0.0
2017-Nov-05 20:55N 35°22' E 139°53'0 0.0
2017-Nov-05 08:58N 35°22' E 139°53'3 6.5
2017-Nov-05 08:30N 35°23' E 139°49'  

Dump ship's entire track history